Time;durP1;ratioP1;P1;durP2;ratioP2;P2;SDS_P1;SDS_P2;PMS_P1;PMS_P2;Temp;Humidity;BMP_temperature;BMP_pressure;BME280_temperature;BME280_humidity;BME280_pressure;Samples;Min_cycle;Max_cycle;Signal;HPM_P1;HPM_P2
2023/09/14 00:00:12;;;;;;;4.88;4.47;;;;;;;26.82;53.46;98901.53;2058428;28;20142;-50
2023/09/14 00:01:14;;;;;;;5.60;3.80;;;;;;;26.84;53.23;98900.22;2062434;28;20046;-52
2023/09/14 00:02:15;;;;;;;4.30;3.90;;;;;;;26.81;53.30;98899.91;2053420;28;20057;-49
2023/09/14 00:03:16;;;;;;;4.72;4.32;;;;;;;26.83;53.43;98900.44;2057302;28;23637;-51
2023/09/14 00:04:18;;;;;;;4.25;3.85;;;;;;;26.85;53.17;98901.84;2060218;28;20691;-48
2023/09/14 00:05:19;;;;;;;6.82;4.32;;;;;;;26.88;53.13;98904.06;2060515;28;20060;-48
2023/09/14 00:06:20;;;;;;;4.82;4.28;;;;;;;26.87;53.22;98907.88;2061750;28;20496;-49
2023/09/14 00:07:21;;;;;;;4.82;4.43;;;;;;;26.85;52.91;98901.84;2055182;28;20057;-52
2023/09/14 00:08:22;;;;;;;6.03;3.70;;;;;;;26.84;53.02;98905.66;2058799;28;20149;-52
2023/09/14 00:09:24;;;;;;;4.70;3.80;;;;;;;26.81;52.96;98903.44;2057808;28;20306;-53
2023/09/14 00:10:25;;;;;;;4.25;3.42;;;;;;;26.83;53.05;98904.03;2062249;28;20053;-52
2023/09/14 00:11:27;;;;;;;6.72;4.07;;;;;;;26.84;52.76;98900.22;2060012;28;20437;-50
2023/09/14 00:12:29;;;;;;;4.68;4.05;;;;;;;26.85;52.82;98896.41;2061661;28;20451;-53
2023/09/14 00:13:32;;;;;;;4.80;3.88;;;;;;;26.81;52.55;98895.28;2059555;28;20073;-49
2023/09/14 00:14:33;;;;;;;5.32;4.47;;;;;;;26.81;52.73;98898.00;2059280;28;20488;-55
2023/09/14 00:15:35;;;;;;;6.30;4.22;;;;;;;26.80;52.67;98895.53;2060083;28;20065;-52
2023/09/14 00:16:36;;;;;;;11.35;4.18;;;;;;;26.80;52.66;98896.38;2059392;28;20050;-49
2023/09/14 00:17:37;;;;;;;5.30;4.03;;;;;;;26.77;53.20;98896.84;2058176;28;20525;-52
2023/09/14 00:18:38;;;;;;;7.00;4.15;;;;;;;26.78;52.46;98898.50;2058217;28;20053;-51
2023/09/14 00:19:39;;;;;;;5.53;4.05;;;;;;;26.79;52.74;98897.41;2055291;28;20589;-53
2023/09/14 00:20:41;;;;;;;5.85;3.92;;;;;;;26.80;52.89;98896.38;2058315;28;20094;-52
2023/09/14 00:21:42;;;;;;;4.22;3.47;;;;;;;26.83;52.88;98895.84;2058618;28;20057;-51
2023/09/14 00:22:44;;;;;;;4.63;4.22;;;;;;;26.83;52.53;98898.59;2063033;28;20050;-50
2023/09/14 00:23:45;;;;;;;5.70;3.63;;;;;;;26.82;52.28;98896.09;2062935;28;20046;-47
2023/09/14 00:24:46;;;;;;;5.70;3.63;;;;;;;26.83;52.48;98895.84;2063370;28;20385;-47
2023/09/14 00:25:48;;;;;;;4.38;3.90;;;;;;;26.84;52.52;98897.50;2061646;28;20045;-49
2023/09/14 00:26:50;;;;;;;6.32;4.32;;;;;;;26.86;52.52;98902.69;2061145;28;20050;-52
2023/09/14 00:27:53;;;;;;;4.38;3.97;;;;;;;26.85;52.24;98901.84;2057082;28;20052;-54
2023/09/14 00:28:55;;;;;;;5.47;3.95;;;;;;;26.86;52.22;98899.97;2060551;28;21379;-54
2023/09/14 00:29:56;;;;;;;5.03;3.90;;;;;;;26.85;52.41;98901.84;2059125;28;20061;-48
2023/09/14 00:30:57;;;;;;;3.95;3.65;;;;;;;26.88;52.42;98901.34;2061190;28;20289;-49
2023/09/14 00:31:58;;;;;;;5.65;4.13;;;;;;;26.87;51.98;98898.91;2062309;28;20484;-50
2023/09/14 00:32:59;;;;;;;5.35;3.63;;;;;;;26.87;52.17;98905.16;2061451;28;20054;-46
2023/09/14 00:34:01;;;;;;;4.40;4.00;;;;;;;26.89;52.05;98899.47;2060322;28;20049;-50
2023/09/14 00:35:02;;;;;;;5.10;4.60;;;;;;;26.88;51.94;98898.63;2063440;28;20207;-52
2023/09/14 00:36:05;;;;;;;5.22;4.05;;;;;;;26.86;51.87;98900.81;2048846;28;20050;-50
2023/09/14 00:37:06;;;;;;;9.50;4.80;;;;;;;26.86;51.90;98892.63;2052932;28;20049;-49
2023/09/14 00:38:07;;;;;;;5.47;4.38;;;;;;;26.85;51.85;98895.59;2056649;28;21678;-46
2023/09/14 00:39:10;;;;;;;3.75;3.30;;;;;;;26.86;51.99;98897.25;2059054;28;20065;-52
2023/09/14 00:40:13;;;;;;;4.30;3.78;;;;;;;26.86;52.20;98895.34;2054835;28;20049;-49
2023/09/14 00:41:15;;;;;;;5.65;4.05;;;;;;;26.86;52.24;98898.06;2057522;28;20365;-51
2023/09/14 00:42:16;;;;;;;4.50;3.85;;;;;;;26.83;52.32;98898.59;2057848;28;20068;-54
2023/09/14 00:43:19;;;;;;;4.55;4.00;;;;;;;26.82;51.96;98899.63;2061451;28;20050;-49
2023/09/14 00:44:20;;;;;;;3.40;3.10;;;;;;;26.81;51.76;98906.16;2059671;28;20520;-51
2023/09/14 00:45:23;;;;;;;4.40;3.58;;;;;;;26.80;52.19;98909.97;2055838;28;20144;-50
2023/09/14 00:46:24;;;;;;;4.45;4.05;;;;;;;26.79;52.11;98919.19;2057368;28;20507;-54
2023/09/14 00:47:26;;;;;;;5.35;4.30;;;;;;;26.78;51.94;98914.84;2063137;28;20188;-53
2023/09/14 00:48:28;;;;;;;4.22;3.83;;;;;;;26.75;51.89;98915.34;2061149;28;20140;-54
2023/09/14 00:49:30;;;;;;;4.18;3.83;;;;;;;26.72;51.72;98911.22;2062107;28;20058;-50
2023/09/14 00:50:32;;;;;;;4.00;3.58;;;;;;;26.72;51.47;98907.69;2062029;28;20046;-46
2023/09/14 00:51:34;;;;;;;4.88;4.43;;;;;;;26.74;51.70;98902.78;2058437;28;20490;-53
2023/09/14 00:52:36;;;;;;;5.75;4.00;;;;;;;26.73;51.59;98898.44;2060804;28;20090;-51
2023/09/14 00:53:39;;;;;;;4.38;3.97;;;;;;;26.77;52.22;98898.75;2052737;28;20053;-48
2023/09/14 00:54:40;;;;;;;4.85;4.05;;;;;;;26.79;51.93;98900.16;2056985;28;20057;-56
2023/09/14 00:55:42;;;;;;;5.82;4.05;;;;;;;26.78;51.87;98894.97;2052084;28;20255;-50
2023/09/14 00:56:44;;;;;;;5.32;3.80;;;;;;;26.80;52.14;98901.81;2061896;28;20420;-46
2023/09/14 00:57:47;;;;;;;4.40;4.00;;;;;;;26.81;52.04;98895.28;2059761;28;20054;-49
2023/09/14 00:58:50;;;;;;;6.63;4.00;;;;;;;26.83;51.99;98895.00;2059382;28;20050;-52
2023/09/14 00:59:52;;;;;;;3.97;3.30;;;;;;;26.82;52.32;98894.19;2057870;28;20417;-53
2023/09/14 01:00:55;;;;;;;5.30;4.78;;;;;;;26.84;51.97;98897.50;2061063;28;20057;-53
2023/09/14 01:01:55;;;;;;;4.65;4.20;;;;;;;26.85;52.18;98890.97;2055479;28;20057;-46
2023/09/14 01:02:58;;;;;;;4.20;3.80;;;;;;;26.85;51.87;98896.41;2058424;28;20307;-47
2023/09/14 01:04:00;;;;;;;4.43;4.03;;;;;;;26.82;52.34;98894.19;2058187;28;20050;-55
2023/09/14 01:05:01;;;;;;;9.27;4.05;;;;;;;26.85;52.14;98895.59;2057628;28;20504;-56
2023/09/14 01:06:03;;;;;;;4.60;3.92;;;;;;;26.84;51.89;98889.34;2060900;28;20194;-53
2023/09/14 01:07:04;;;;;;;4.53;4.13;;;;;;;26.83;52.19;98890.41;2061605;28;20054;-52
2023/09/14 01:08:06;;;;;;;5.75;4.00;;;;;;;26.83;52.46;98881.41;2060288;28;20056;-49
2023/09/14 01:09:07;;;;;;;4.60;4.07;;;;;;;26.79;52.08;98883.00;2060234;28;20495;-51
2023/09/14 01:10:10;;;;;;;4.72;3.63;;;;;;;26.75;52.59;98885.41;2054245;28;20169;-49
2023/09/14 01:11:11;;;;;;;6.18;4.60;;;;;;;26.71;52.80;98878.81;2058013;28;20058;-50
2023/09/14 01:12:14;;;;;;;5.53;3.90;;;;;;;26.73;52.81;98879.38;2057886;28;20065;-50
2023/09/14 01:13:28;;;;;;;6.20;3.83;;;;;;;26.71;52.41;98874.19;2050423;28;20046;-53
2023/09/14 01:14:38;;;;;;;7.20;4.18;;;;;;;26.72;52.89;98877.75;2061246;28;20136;-56
2023/09/14 01:15:45;;;;;;;4.47;3.92;;;;;;;26.75;52.76;98879.97;2065664;28;20046;-51
2023/09/14 01:16:55;;;;;;;8.23;4.15;;;;;;;26.76;52.59;98883.50;2062743;28;20133;-46
2023/09/14 01:18:04;;;;;;;5.53;3.92;;;;;;;26.77;52.65;98877.78;2061559;28;20564;-54
2023/09/14 01:19:17;;;;;;;4.13;3.72;;;;;;;26.73;52.49;98879.38;2059205;28;20058;-55
2023/09/14 01:20:39;;;;;;;3.50;3.20;;;;;;;26.64;52.93;98875.47;2052668;28;20093;-54
2023/09/14 01:21:57;;;;;;;6.60;4.20;;;;;;;26.62;52.81;98878.41;2055227;28;20061;-56
2023/09/14 01:23:09;;;;;;;3.92;3.53;;;;;;;26.65;53.16;98882.53;2059770;28;20117;-51
2023/09/14 01:24:18;;;;;;;4.78;4.15;;;;;;;26.60;53.19;98871.56;2059582;28;20081;-50
2023/09/14 01:25:25;;;;;;;4.45;4.05;;;;;;;26.59;52.90;98878.09;2060445;28;20081;-50
2023/09/14 01:26:29;;;;;;;6.03;4.07;;;;;;;26.61;52.77;98874.06;2062268;28;20049;-54
2023/09/14 01:27:30;;;;;;;4.32;3.92;;;;;;;26.60;52.83;98877.84;2063290;28;20049;-53
2023/09/14 01:28:31;;;;;;;5.57;4.18;;;;;;;26.62;52.64;98875.69;2057979;28;20528;-50
2023/09/14 01:29:32;;;;;;;4.82;4.28;;;;;;;26.65;52.99;98882.53;2057587;28;23667;-51
2023/09/14 01:30:34;;;;;;;6.28;4.15;;;;;;;26.66;52.59;98879.56;2061326;28;20507;-54
2023/09/14 01:31:35;;;;;;;4.72;4.32;;;;;;;26.69;52.97;98879.06;2049419;28;20049;-55
2023/09/14 01:32:37;;;;;;;3.97;3.55;;;;;;;26.71;52.57;98873.34;2058201;28;20640;-51
2023/09/14 01:33:39;;;;;;;4.53;4.10;;;;;;;26.74;52.58;98878.31;2058564;28;20058;-51
2023/09/14 01:34:41;;;;;;;4.50;3.75;;;;;;;26.72;52.51;98880.47;2061148;28;20057;-52
2023/09/14 01:35:49;;;;;;;5.50;4.20;;;;;;;26.71;52.72;98876.09;2062230;28;20049;-54
2023/09/14 01:36:56;;;;;;;5.10;4.22;;;;;;;26.72;52.46;98881.28;2058494;28;20748;-53
2023/09/14 01:37:58;;;;;;;5.20;4.03;;;;;;;26.71;52.96;98873.34;2060111;28;20310;-47
2023/09/14 01:39:01;;;;;;;4.97;3.78;;;;;;;26.73;52.86;98877.47;2053867;28;21214;-53
2023/09/14 01:40:06;;;;;;;6.93;4.93;;;;;;;26.73;52.62;98882.09;2060068;28;20057;-49
2023/09/14 01:41:09;;;;;;;3.80;3.50;;;;;;;26.73;52.63;98873.94;2057364;28;20062;-53
2023/09/14 01:42:11;;;;;;;5.88;3.78;;;;;;;26.72;52.72;98889.44;2056414;28;20604;-56
2023/09/14 01:43:15;;;;;;;4.53;3.95;;;;;;;26.68;52.37;98873.88;2059474;28;20983;-49
2023/09/14 01:44:17;;;;;;;6.15;3.97;;;;;;;26.65;52.21;98887.97;2056827;28;20054;-47
2023/09/14 01:45:18;;;;;;;5.50;3.88;;;;;;;26.61;52.77;98884.94;2062098;28;20046;-55
2023/09/14 01:46:21;;;;;;;8.25;3.95;;;;;;;26.62;52.93;98885.75;2062667;28;20042;-48
2023/09/14 01:47:21;;;;;;;5.00;3.60;;;;;;;26.59;52.59;98883.53;2060277;28;20058;-47
2023/09/14 01:48:24;;;;;;;4.88;4.47;;;;;;;26.56;52.67;98881.31;2054298;28;20141;-51
2023/09/14 01:49:24;;;;;;;6.35;4.28;;;;;;;26.57;52.42;98891.13;2058651;28;20096;-48
2023/09/14 01:50:26;;;;;;;5.55;5.05;;;;;;;26.53;53.01;98879.94;2059750;28;20050;-49
2023/09/14 01:51:28;;;;;;;5.55;4.00;;;;;;;26.52;53.04;98883.69;2062241;28;20504;-51
2023/09/14 01:52:30;;;;;;;4.93;4.30;;;;;;;26.51;52.70;98888.31;2061459;28;20223;-48
2023/09/14 01:53:31;;;;;;;6.88;4.07;;;;;;;26.51;52.83;98882.88;2057049;28;20054;-50
2023/09/14 01:54:32;;;;;;;4.00;3.60;;;;;;;26.50;52.52;98886.69;2061220;28;20058;-49
2023/09/14 01:55:34;;;;;;;5.05;4.55;;;;;;;26.50;52.84;98885.84;2062006;28;20127;-51
2023/09/14 01:56:36;;;;;;;5.15;4.07;;;;;;;26.47;52.84;98883.63;2062632;28;20042;-50
2023/09/14 01:57:39;;;;;;;6.05;4.75;;;;;;;26.47;52.66;98891.78;2060859;28;20145;-51
2023/09/14 01:58:40;;;;;;;5.60;4.53;;;;;;;26.44;53.08;98887.66;2055424;28;20054;-48
2023/09/14 01:59:42;;;;;;;4.43;4.00;;;;;;;26.45;52.48;98889.28;2059428;28;20050;-52
2023/09/14 02:00:42;;;;;;;4.80;4.30;;;;;;;26.50;52.66;98889.41;2052960;28;20054;-50
2023/09/14 02:01:44;;;;;;;5.60;4.38;;;;;;;26.51;52.67;98890.22;2057620;28;20141;-49
2023/09/14 02:02:45;;;;;;;5.32;4.63;;;;;;;26.51;52.40;98882.88;2055032;28;20145;-49
2023/09/14 02:03:47;;;;;;;5.70;3.92;;;;;;;26.52;52.51;98881.81;2056119;28;20054;-50
2023/09/14 02:04:48;;;;;;;7.30;4.60;;;;;;;26.55;52.43;98882.38;2054503;28;20499;-52
2023/09/14 02:05:57;;;;;;;7.65;3.55;;;;;;;26.52;51.74;98884.53;2061836;28;20054;-50
2023/09/14 02:06:58;;;;;;;5.13;4.63;;;;;;;26.51;51.11;98882.88;2054094;28;20054;-47
2023/09/14 02:08:00;;;;;;;6.22;4.55;;;;;;;26.54;52.15;98878.84;2062832;28;20085;-47
2023/09/14 02:09:01;;;;;;;5.47;4.97;;;;;;;26.55;52.12;98880.50;2062815;28;20065;-49
2023/09/14 02:10:03;;;;;;;9.60;3.88;;;;;;;26.56;52.56;98884.03;2065531;28;20173;-46
2023/09/14 02:11:04;;;;;;;5.18;4.60;;;;;;;26.55;52.24;98880.50;2062970;28;20333;-48
2023/09/14 02:12:06;;;;;;;5.00;3.88;;;;;;;26.52;52.11;98876.38;2060707;28;20498;-48
2023/09/14 02:13:08;;;;;;;8.52;4.38;;;;;;;26.52;52.36;98881.81;2058686;28;21222;-47
2023/09/14 02:14:10;;;;;;;4.38;3.97;;;;;;;26.55;52.01;98879.66;2059378;28;20053;-48
2023/09/14 02:15:11;;;;;;;6.05;4.20;;;;;;;26.54;52.00;98878.84;2063493;28;20053;-48
2023/09/14 02:16:13;;;;;;;5.25;3.92;;;;;;;26.52;51.98;98879.09;2060251;28;20050;-46
2023/09/14 02:17:14;;;;;;;4.22;3.80;;;;;;;26.51;52.35;98872.00;2065335;28;20057;-47
2023/09/14 02:18:14;;;;;;;7.53;4.50;;;;;;;26.51;52.27;98882.88;2063766;28;20045;-47
2023/09/14 02:19:16;;;;;;;5.10;3.78;;;;;;;26.53;51.61;98871.75;2061622;28;20428;-47
2023/09/14 02:20:17;;;;;;;8.90;4.05;;;;;;;26.54;51.92;98876.13;2059893;28;20065;-46
2023/09/14 02:21:20;;;;;;;4.80;4.28;;;;;;;26.54;51.98;98878.03;2064218;28;20053;-46
2023/09/14 02:22:21;;;;;;;5.68;4.45;;;;;;;26.54;51.73;98875.31;2062523;28;20081;-46
2023/09/14 02:23:22;;;;;;;6.78;4.40;;;;;;;26.54;51.68;98878.03;2066018;28;20052;-46
2023/09/14 02:24:23;;;;;;;4.82;4.07;;;;;;;26.52;51.75;98873.66;2062472;28;20046;-47
2023/09/14 02:25:25;;;;;;;8.30;4.00;;;;;;;26.50;51.32;98875.81;2059379;28;20141;-47
2023/09/14 02:26:26;;;;;;;4.22;3.67;;;;;;;26.54;51.97;98878.84;2063165;28;20056;-48
2023/09/14 02:27:28;;;;;;;7.82;4.63;;;;;;;26.52;51.90;98875.53;2057676;28;20054;-47
2023/09/14 02:28:30;;;;;;;6.20;4.00;;;;;;;26.53;51.73;98877.19;2061170;28;20078;-47
2023/09/14 02:29:32;;;;;;;4.57;3.38;;;;;;;26.54;51.55;98876.13;2065065;28;20068;-47
2023/09/14 02:30:33;;;;;;;8.25;3.72;;;;;;;26.53;51.74;98877.19;2060176;28;20423;-47
2023/09/14 02:31:35;;;;;;;5.03;3.10;;;;;;;26.48;51.74;98875.19;2064184;28;20061;-48
2023/09/14 02:32:36;;;;;;;6.97;4.25;;;;;;;26.52;51.54;98883.69;2062294;28;20058;-47
2023/09/14 02:33:38;;;;;;;6.22;4.25;;;;;;;26.52;51.82;98880.97;2059860;28;20153;-47
2023/09/14 02:34:38;;;;;;;4.07;3.47;;;;;;;26.50;51.46;98878.53;2060751;28;20077;-49
2023/09/14 02:35:41;;;;;;;5.53;4.05;;;;;;;26.48;51.43;98885.25;2062700;28;20401;-47
2023/09/14 02:36:42;;;;;;;6.45;4.00;;;;;;;26.45;51.29;98881.13;2063401;28;20049;-46
2023/09/14 02:37:43;;;;;;;4.32;3.90;;;;;;;26.50;51.69;98883.97;2064294;28;20341;-46
2023/09/14 02:38:45;;;;;;;4.85;3.75;;;;;;;26.49;51.30;98889.59;2061979;28;20077;-47
2023/09/14 02:39:47;;;;;;;5.57;3.63;;;;;;;26.47;51.17;98889.88;2065354;28;20226;-47
2023/09/14 02:40:48;;;;;;;5.15;3.55;;;;;;;26.51;50.93;98891.03;2066125;28;20419;-47
2023/09/14 02:41:50;;;;;;;5.07;4.07;;;;;;;26.49;51.34;98887.75;2062176;28;20298;-46
2023/09/14 02:42:51;;;;;;;4.70;3.78;;;;;;;26.47;51.03;98889.88;2058915;28;20153;-46
2023/09/14 02:43:54;;;;;;;4.32;3.92;;;;;;;26.47;51.13;98881.72;2060836;28;20054;-47
2023/09/14 02:44:55;;;;;;;4.57;3.95;;;;;;;26.43;51.03;98882.44;2061250;28;20057;-49
2023/09/14 02:45:56;;;;;;;4.05;3.65;;;;;;;26.36;50.89;98881.81;2063075;28;20049;-48
2023/09/14 02:46:57;;;;;;;4.93;4.13;;;;;;;26.28;50.95;98875.72;2062996;28;20060;-47
2023/09/14 02:47:59;;;;;;;3.92;3.53;;;;;;;26.25;51.10;98876.22;2063749;28;20562;-46
2023/09/14 02:49:00;;;;;;;6.47;3.95;;;;;;;26.29;51.37;98881.97;2064038;28;20411;-47
2023/09/14 02:50:02;;;;;;;6.97;3.35;;;;;;;26.41;51.24;98881.88;2065291;28;20045;-47
2023/09/14 02:51:03;;;;;;;6.47;4.35;;;;;;;26.51;50.82;98876.63;2061812;28;20523;-47
2023/09/14 02:52:04;;;;;;;4.70;3.45;;;;;;;26.54;50.87;98883.47;2063333;28;20045;-47
2023/09/14 02:53:06;;;;;;;3.78;3.35;;;;;;;26.56;50.76;98876.69;2061417;28;21269;-47
2023/09/14 02:54:07;;;;;;;4.22;3.83;;;;;;;26.57;50.44;98870.19;2062572;28;20057;-48
2023/09/14 02:55:09;;;;;;;4.63;3.50;;;;;;;26.58;50.50;98868.28;2063263;28;20046;-47
2023/09/14 02:56:10;;;;;;;5.95;3.85;;;;;;;26.55;51.27;98869.63;2063265;28;20057;-47
2023/09/14 02:57:12;;;;;;;3.67;3.13;;;;;;;26.50;50.46;98870.38;2060739;28;20321;-47
2023/09/14 02:58:13;;;;;;;6.22;4.43;;;;;;;26.52;51.11;98870.09;2061765;28;20050;-47
2023/09/14 02:59:17;;;;;;;3.88;3.33;;;;;;;26.52;51.00;98870.94;2064271;28;20232;-46
2023/09/14 03:00:18;;;;;;;4.57;3.45;;;;;;;26.49;50.98;98871.41;2058376;28;24514;-47
2023/09/14 03:01:20;;;;;;;4.75;3.90;;;;;;;26.50;51.16;98866.78;2060894;28;20045;-49
2023/09/14 03:02:21;;;;;;;3.72;3.42;;;;;;;26.48;51.55;98861.59;2062809;28;20147;-48
2023/09/14 03:03:23;;;;;;;5.60;3.88;;;;;;;26.46;51.34;98865.63;2059989;28;20412;-47
2023/09/14 03:04:24;;;;;;;5.40;4.30;;;;;;;26.44;51.03;98863.19;2064951;28;20500;-48
2023/09/14 03:05:26;;;;;;;3.92;3.45;;;;;;;26.47;51.36;98867.28;2063364;28;20089;-47
2023/09/14 03:06:27;;;;;;;4.22;3.63;;;;;;;26.48;51.49;98866.22;2065460;28;20511;-46
2023/09/14 03:07:29;;;;;;;5.07;3.83;;;;;;;26.48;51.49;98875.19;2063306;28;20042;-47
2023/09/14 03:08:30;;;;;;;3.85;3.47;;;;;;;26.46;51.21;98871.88;2065381;28;20142;-46
2023/09/14 03:09:30;;;;;;;3.70;3.40;;;;;;;26.47;51.08;98861.84;2061832;28;20543;-47
2023/09/14 03:10:32;;;;;;;5.22;4.07;;;;;;;26.48;51.23;98863.50;2063749;28;20141;-46
2023/09/14 03:11:33;;;;;;;4.25;3.67;;;;;;;26.48;51.56;98864.31;2060094;28;20467;-45
2023/09/14 03:12:34;;;;;;;7.13;4.38;;;;;;;26.50;51.55;98856.75;2062399;28;20184;-46
2023/09/14 03:13:36;;;;;;;5.85;3.53;;;;;;;26.56;51.10;98863.09;2057299;28;20057;-47
2023/09/14 03:14:38;;;;;;;5.82;2.95;;;;;;;26.55;50.93;98863.34;2055362;28;20527;-47
2023/09/14 03:15:40;;;;;;;5.45;3.78;;;;;;;26.58;51.04;98860.97;2062282;28;20484;-46
2023/09/14 03:16:41;;;;;;;4.30;2.90;;;;;;;26.58;51.31;98862.84;2062986;28;20058;-47
2023/09/14 03:17:42;;;;;;;5.85;4.28;;;;;;;26.56;51.33;98859.56;2061476;28;20068;-45
2023/09/14 03:18:44;;;;;;;9.02;4.38;;;;;;;26.55;51.30;98858.75;2061983;28;20434;-46
2023/09/14 03:19:44;;;;;;;6.95;3.72;;;;;;;26.57;51.25;98859.28;2064021;28;20054;-46
2023/09/14 03:20:46;;;;;;;5.18;4.20;;;;;;;26.54;50.92;98857.06;2064140;28;20060;-48
2023/09/14 03:21:48;;;;;;;3.90;3.58;;;;;;;26.55;51.25;98857.91;2062898;28;20148;-46
2023/09/14 03:22:49;;;;;;;4.45;3.97;;;;;;;26.56;50.91;98851.41;2061091;28;20407;-46
2023/09/14 03:23:50;;;;;;;4.75;3.25;;;;;;;26.52;51.04;98859.22;2062662;28;20115;-47
2023/09/14 03:24:52;;;;;;;4.63;3.50;;;;;;;26.55;51.27;98853.31;2062619;28;20408;-48
2023/09/14 03:25:53;;;;;;;4.15;3.40;;;;;;;26.58;51.08;98851.94;2064117;28;20052;-46
2023/09/14 03:26:54;;;;;;;5.43;3.90;;;;;;;26.59;51.10;98853.63;2061444;28;20053;-47
2023/09/14 03:27:55;;;;;;;6.60;3.92;;;;;;;26.58;50.92;98860.13;2061576;28;24410;-48
2023/09/14 03:28:56;;;;;;;3.70;3.40;;;;;;;26.58;51.11;98852.81;2061269;28;20056;-48
2023/09/14 03:29:59;;;;;;;4.13;3.35;;;;;;;26.59;51.08;98854.44;2064716;28;20136;-46
2023/09/14 03:31:00;;;;;;;5.45;3.35;;;;;;;26.58;50.86;98851.94;2059119;28;20049;-47
2023/09/14 03:32:02;;;;;;;4.13;3.47;;;;;;;26.58;50.49;98849.22;2060268;28;21173;-46
2023/09/14 03:33:03;;;;;;;5.20;3.55;;;;;;;26.54;50.67;98850.81;2060958;28;20053;-46
2023/09/14 03:34:07;;;;;;;8.68;3.55;;;;;;;26.52;50.69;98851.91;2059232;28;20050;-47
2023/09/14 03:35:07;;;;;;;6.00;4.30;;;;;;;26.50;50.93;98845.03;2057737;28;21638;-49
2023/09/14 03:36:09;;;;;;;8.48;3.95;;;;;;;26.49;51.06;98849.66;2062554;28;20180;-47
2023/09/14 03:37:10;;;;;;;4.38;4.00;;;;;;;26.47;50.97;98845.53;2060757;28;20058;-47
2023/09/14 03:38:11;;;;;;;7.47;3.95;;;;;;;26.48;50.50;98837.13;2059346;28;21618;-46
2023/09/14 03:39:13;;;;;;;3.97;3.67;;;;;;;26.44;50.92;98841.41;2064746;28;20571;-46
2023/09/14 03:40:14;;;;;;;6.28;3.63;;;;;;;26.40;51.21;98837.53;2062402;28;20049;-46
2023/09/14 03:41:16;;;;;;;6.22;3.83;;;;;;;26.39;51.28;98835.09;2061337;28;20587;-47
2023/09/14 03:42:16;;;;;;;3.65;3.28;;;;;;;26.38;51.15;98841.56;2059669;28;20543;-48
2023/09/14 03:43:18;;;;;;;3.97;3.58;;;;;;;26.40;51.33;98842.97;2057488;28;20064;-47
2023/09/14 03:44:19;;;;;;;4.95;4.18;;;;;;;26.38;51.04;98836.97;2063345;28;20050;-46
2023/09/14 03:45:22;;;;;;;4.93;4.15;;;;;;;26.37;51.19;98839.94;2064769;28;20461;-47
2023/09/14 03:46:23;;;;;;;4.57;4.05;;;;;;;26.32;51.54;98840.69;2065341;28;20060;-45
2023/09/14 03:47:25;;;;;;;3.67;3.30;;;;;;;26.29;51.60;98841.19;2058210;28;20053;-47
2023/09/14 03:48:26;;;;;;;7.38;4.68;;;;;;;26.30;51.24;98838.22;2063560;28;20096;-46
2023/09/14 03:49:27;;;;;;;4.88;3.47;;;;;;;26.33;51.57;98834.19;2061954;28;20060;-47
2023/09/14 03:50:28;;;;;;;4.03;3.60;;;;;;;26.35;51.39;98832.03;2064877;28;20053;-46
2023/09/14 03:51:30;;;;;;;3.63;3.30;;;;;;;26.32;51.30;98832.53;2063090;28;20058;-47
2023/09/14 03:52:31;;;;;;;7.90;4.40;;;;;;;26.30;51.42;98830.06;2065444;28;20522;-47
2023/09/14 03:53:33;;;;;;;6.00;3.90;;;;;;;26.31;51.36;98836.31;2063191;28;20050;-46
2023/09/14 03:54:33;;;;;;;7.22;3.78;;;;;;;26.30;51.45;98835.50;2063009;28;20057;-47
2023/09/14 03:55:35;;;;;;;4.55;3.38;;;;;;;26.34;51.12;98835.81;2061951;28;20059;-48
2023/09/14 03:56:37;;;;;;;4.80;4.15;;;;;;;26.36;51.33;98833.69;2060072;28;20064;-46
2023/09/14 03:57:46;;;;;;;4.45;3.60;;;;;;;26.35;51.25;98837.47;2058565;28;20439;-47
2023/09/14 03:58:47;;;;;;;6.72;3.28;;;;;;;26.33;51.19;98839.63;2062994;28;20463;-46
2023/09/14 03:59:49;;;;;;;9.90;3.88;;;;;;;26.36;50.86;98832.88;2063456;28;20054;-46
2023/09/14 04:00:51;;;;;;;6.63;4.15;;;;;;;26.37;51.12;98835.31;2064192;28;20483;-47
2023/09/14 04:01:54;;;;;;;3.85;3.55;;;;;;;26.39;51.04;98837.81;2063643;28;20339;-48
2023/09/14 04:02:54;;;;;;;6.35;4.32;;;;;;;26.36;51.34;98833.69;2063894;28;20061;-47
2023/09/14 04:03:56;;;;;;;4.10;3.50;;;;;;;26.35;51.36;98832.03;2057441;28;20050;-47
2023/09/14 04:04:57;;;;;;;5.13;3.75;;;;;;;26.38;51.18;98839.69;2064007;28;20119;-48
2023/09/14 04:05:59;;;;;;;5.93;3.90;;;;;;;26.38;51.03;98838.84;2065380;28;20542;-47
2023/09/14 04:07:00;;;;;;;6.28;3.72;;;;;;;26.34;51.43;98830.38;2061632;28;20050;-47
2023/09/14 04:08:02;;;;;;;7.72;3.70;;;;;;;26.35;51.03;98839.38;2061372;28;20049;-47
2023/09/14 04:09:03;;;;;;;7.32;3.70;;;;;;;26.35;50.96;98832.03;2060849;28;20083;-47
2023/09/14 04:10:06;;;;;;;4.25;3.78;;;;;;;26.34;51.37;98830.38;2060166;28;20516;-47
2023/09/14 04:11:07;;;;;;;4.85;3.88;;;;;;;26.36;51.50;98835.59;2062417;28;20057;-49
2023/09/14 04:12:09;;;;;;;5.80;4.00;;;;;;;26.36;51.32;98836.41;2063852;28;20091;-47
2023/09/14 04:13:34;;;;;;;7.97;3.35;;;;;;;26.32;51.13;98829.81;2062227;28;20064;-48
2023/09/14 04:14:36;;;;;;;5.30;3.50;;;;;;;26.36;51.44;98830.16;2052484;28;20436;-46
2023/09/14 04:15:37;;;;;;;7.72;4.32;;;;;;;26.37;51.02;98837.22;2063472;28;20046;-46
2023/09/14 04:16:40;;;;;;;5.50;3.42;;;;;;;26.41;51.40;98832.91;2063039;28;20054;-46
2023/09/14 04:17:41;;;;;;;5.55;3.45;;;;;;;26.43;50.73;98834.31;2065556;28;20054;-46
2023/09/14 04:18:43;;;;;;;4.60;3.95;;;;;;;26.38;51.16;98836.97;2064839;28;20046;-46
2023/09/14 04:19:44;;;;;;;4.45;3.75;;;;;;;26.34;50.68;98838.53;2062180;28;20054;-46
2023/09/14 04:20:46;;;;;;;4.13;3.35;;;;;;;26.30;50.42;98837.41;2064038;28;20060;-46
2023/09/14 04:21:48;;;;;;;3.92;3.53;;;;;;;26.18;50.92;98842.09;2059505;28;21095;-46
2023/09/14 04:22:50;;;;;;;5.38;3.22;;;;;;;26.14;50.96;98838.25;2062254;28;20057;-47
2023/09/14 04:23:52;;;;;;;4.70;3.55;;;;;;;26.08;51.19;98838.16;2063956;28;20057;-47
2023/09/14 04:24:52;;;;;;;3.63;3.33;;;;;;;26.08;51.07;98843.59;2061130;28;20078;-47
2023/09/14 04:25:54;;;;;;;5.63;3.47;;;;;;;26.07;51.32;98841.13;2063998;28;20136;-46
2023/09/14 04:26:55;;;;;;;5.88;3.65;;;;;;;26.05;50.94;98835.94;2064181;28;20069;-46
2023/09/14 04:27:57;;;;;;;3.85;3.55;;;;;;;26.06;50.73;98840.28;2060286;28;20054;-46
2023/09/14 04:28:58;;;;;;;5.55;3.58;;;;;;;26.06;51.27;98843.00;2060365;28;20072;-46
2023/09/14 04:30:00;;;;;;;6.55;3.72;;;;;;;26.03;50.77;98843.50;2063333;28;20563;-46
2023/09/14 04:31:02;;;;;;;6.20;3.40;;;;;;;26.04;50.73;98845.16;2062172;28;20506;-47
2023/09/14 04:32:06;;;;;;;3.88;3.47;;;;;;;26.05;51.11;98849.53;2062045;28;20078;-46
2023/09/14 04:33:07;;;;;;;4.88;3.78;;;;;;;26.02;50.71;98849.19;2063060;28;20077;-46
2023/09/14 04:34:09;;;;;;;5.35;3.33;;;;;;;25.97;51.08;98849.94;2065203;28;20213;-46
2023/09/14 04:35:10;;;;;;;4.90;3.63;;;;;;;25.97;50.80;98852.66;2062965;28;20058;-47
2023/09/14 04:36:11;;;;;;;5.30;3.88;;;;;;;25.94;51.26;98857.78;2063134;28;20062;-46
2023/09/14 04:37:12;;;;;;;4.43;3.45;;;;;;;25.94;50.87;98855.88;2065419;28;20054;-47
2023/09/14 04:38:14;;;;;;;4.32;3.92;;;;;;;25.91;51.00;98853.66;2064566;28;20221;-48
2023/09/14 04:39:15;;;;;;;6.30;3.83;;;;;;;25.96;50.80;98848.28;2058304;28;20495;-46
2023/09/14 04:40:17;;;;;;;4.38;3.72;;;;;;;26.01;50.68;98852.97;2060327;28;20054;-48
2023/09/14 04:41:18;;;;;;;7.15;3.60;;;;;;;26.01;50.44;98855.69;2063511;28;20049;-47
2023/09/14 04:42:20;;;;;;;5.55;3.75;;;;;;;26.01;50.83;98856.50;2059600;28;20074;-47
2023/09/14 04:43:22;;;;;;;4.95;3.47;;;;;;;26.01;50.68;98863.84;2060462;28;20050;-46
2023/09/14 04:44:23;;;;;;;4.45;3.28;;;;;;;26.11;50.72;98857.78;2064580;28;20153;-46
2023/09/14 04:45:24;;;;;;;4.68;4.25;;;;;;;26.22;50.41;98859.59;2063757;28;20061;-46
2023/09/14 04:46:27;;;;;;;4.97;3.33;;;;;;;26.14;50.29;98865.44;2065668;28;20129;-46
2023/09/14 04:47:30;;;;;;;4.45;4.03;;;;;;;26.07;50.40;98862.84;2064262;28;20491;-46
2023/09/14 04:48:31;;;;;;;4.13;3.25;;;;;;;26.05;50.38;98865.84;2065650;28;20303;-46
2023/09/14 04:49:33;;;;;;;5.70;3.40;;;;;;;26.04;50.60;98866.88;2060912;28;20045;-47
2023/09/14 04:50:34;;;;;;;3.80;3.38;;;;;;;26.00;50.38;98864.94;2060763;28;20058;-47
2023/09/14 04:51:35;;;;;;;5.05;3.90;;;;;;;25.98;50.33;98864.34;2058895;28;20479;-46
2023/09/14 04:52:36;;;;;;;4.25;3.63;;;;;;;25.97;50.77;98863.53;2060953;28;20060;-49